createdAt,value
2023-05-05T00:01:24.964Z,101091.66
2023-05-05T00:03:51.688Z,101163.88
2023-05-05T00:06:18.373Z,101168.34
2023-05-05T00:08:44.985Z,101170.13
2023-05-05T00:11:11.808Z,101147.84
2023-05-05T00:13:38.908Z,101148.72
2023-05-05T00:16:05.963Z,101161.22
2023-05-05T00:18:33.769Z,101165.69
2023-05-05T00:21:01.613Z,101189.78
2023-05-05T00:23:28.415Z,101173.75
2023-05-05T00:25:55.075Z,101078.34
2023-05-05T00:28:22.055Z,101187.13
2023-05-05T00:30:48.899Z,101185.34
2023-05-05T00:33:15.808Z,101173.75
2023-05-05T00:35:42.484Z,101163.06
2023-05-05T00:38:09.417Z,101154.16
2023-05-05T00:40:37.092Z,101153.25
2023-05-05T00:43:05.248Z,101151.47
2023-05-05T00:45:32.061Z,101152.38
2023-05-05T00:48:00.408Z,101178.22
2023-05-05T00:50:29.472Z,101167.53
2023-05-05T00:53:00.304Z,101099.75
2023-05-05T00:55:29.007Z,101170.19
2023-05-05T00:57:56.830Z,101178.22
2023-05-05T01:00:24.066Z,101178.19
2023-05-05T01:02:51.924Z,101170.13
2023-05-05T01:05:21.082Z,101113.06
2023-05-05T01:08:16.545Z,101201.28
2023-05-05T01:10:48.744Z,101178.09
2023-05-05T01:13:54.434Z,101195.00
2023-05-05T01:16:27.239Z,101215.53
2023-05-05T01:19:22.021Z,101195.84
2023-05-05T01:21:55.985Z,101182.47
2023-05-05T01:24:48.613Z,101205.63
2023-05-05T01:27:40.848Z,101120.91
2023-05-05T01:30:27.228Z,101185.09
2023-05-05T01:33:00.716Z,101157.47
2023-05-05T01:35:31.789Z,101218.97
2023-05-05T01:38:07.521Z,101228.78
2023-05-05T01:40:40.955Z,101221.66
2023-05-05T01:43:10.311Z,101233.25
2023-05-05T01:45:41.508Z,101243.06
2023-05-05T01:48:09.227Z,101137.84
2023-05-05T01:50:36.991Z,101218.09
2023-05-05T01:53:05.244Z,101163.75
2023-05-05T01:55:33.442Z,101223.53
2023-05-05T01:58:02.711Z,101219.97
2023-05-05T02:00:31.122Z,101232.50
2023-05-05T02:03:00.536Z,101221.81
2023-05-05T02:05:28.258Z,101228.97
2023-05-05T02:07:58.851Z,101230.81
2023-05-05T02:10:27.070Z,101151.44
2023-05-05T02:12:54.017Z,101239.75
2023-05-05T02:15:22.770Z,101201.41
2023-05-05T02:17:54.150Z,101136.31
2023-05-05T02:20:23.870Z,101213.03
2023-05-05T02:22:50.640Z,101180.94
2023-05-05T02:25:20.126Z,101177.34
2023-05-05T02:27:48.587Z,101187.16
2023-05-05T02:30:19.396Z,101190.69
2023-05-05T02:33:02.474Z,101212.97
2023-05-05T02:35:36.569Z,101227.22
2023-05-05T02:38:06.329Z,101245.91
2023-05-05T02:40:40.675Z,101239.63
2023-05-05T02:43:10.917Z,101231.53
2023-05-05T02:45:38.355Z,101214.53
2023-05-05T02:48:05.971Z,101247.50
2023-05-05T02:50:37.092Z,101208.09
2023-05-05T02:53:26.867Z,101232.97
2023-05-05T02:56:14.898Z,101227.53
2023-05-05T02:59:15.997Z,101255.16
2023-05-05T03:02:10.756Z,101218.47
2023-05-05T03:05:09.970Z,101185.31
2023-05-05T03:08:02.215Z,101231.63
2023-05-05T03:10:34.869Z,101169.78
2023-05-05T03:13:03.027Z,101155.44
2023-05-05T03:15:43.231Z,101174.94
2023-05-05T03:18:11.555Z,101235.72
2023-05-05T03:20:43.172Z,101259.75
2023-05-05T03:23:13.404Z,101236.34
2023-05-05T03:25:49.387Z,101252.31
2023-05-05T03:28:38.377Z,101244.25
2023-05-05T03:31:13.882Z,101247.78
2023-05-05T03:33:40.493Z,101241.44
2023-05-05T03:36:07.117Z,101181.34
2023-05-05T03:38:34.490Z,101266.25
2023-05-05T03:41:03.211Z,101269.75
2023-05-05T03:43:30.812Z,101244.66
2023-05-05T03:45:58.877Z,101258.94
2023-05-05T03:48:25.815Z,101255.22
2023-05-05T03:50:52.994Z,101248.97
2023-05-05T03:53:21.487Z,101269.41
2023-05-05T03:55:49.001Z,101296.13
2023-05-05T03:58:16.368Z,101198.47
2023-05-05T04:00:43.083Z,101205.53
2023-05-05T04:03:10.912Z,101265.38
2023-05-05T04:05:38.095Z,101275.13
2023-05-05T04:08:05.263Z,101225.94
2023-05-05T04:10:32.141Z,101300.09
2023-05-05T04:12:58.896Z,101260.72
2023-05-05T04:15:25.652Z,101292.84
2023-05-05T04:17:52.765Z,101302.53
2023-05-05T04:20:19.480Z,101288.25
2023-05-05T04:22:46.451Z,101290.00
2023-05-05T04:25:13.785Z,101309.69
2023-05-05T04:27:40.527Z,101303.44
2023-05-05T04:30:09.413Z,101315.88
2023-05-05T04:32:38.016Z,101329.31
2023-05-05T04:35:07.816Z,101238.00
2023-05-05T04:37:34.502Z,101331.09
2023-05-05T04:40:01.270Z,101265.81
2023-05-05T04:42:30.519Z,101334.72
2023-05-05T04:44:57.339Z,101329.50
2023-05-05T04:47:24.306Z,101343.94
2023-05-05T04:49:51.125Z,101314.47
2023-05-05T04:52:18.396Z,101334.25
2023-05-05T04:54:44.975Z,101323.53
2023-05-05T04:57:11.607Z,101319.22
2023-05-05T04:59:38.138Z,101338.97
2023-05-05T05:02:04.862Z,101355.22
2023-05-05T05:04:31.554Z,101349.88
2023-05-05T05:06:59.380Z,101346.38
2023-05-05T05:09:27.463Z,101333.03
2023-05-05T05:11:54.076Z,101347.31
2023-05-05T05:14:21.183Z,101342.00
2023-05-05T05:16:51.048Z,101355.41
2023-05-05T05:19:18.109Z,101273.13
2023-05-05T05:21:44.723Z,101328.66
2023-05-05T05:24:11.637Z,101287.59
2023-05-05T05:26:38.921Z,101333.28
2023-05-05T05:29:07.155Z,101349.63
2023-05-05T05:31:34.482Z,101353.25
2023-05-05T05:34:01.828Z,101338.13
2023-05-05T05:36:28.552Z,101336.47
2023-05-05T05:38:55.393Z,101341.94
2023-05-05T05:41:22.049Z,101320.66
2023-05-05T05:43:48.797Z,101353.78
2023-05-05T05:46:15.468Z,101335.13
2023-05-05T05:48:43.060Z,101343.28
2023-05-05T05:51:09.725Z,101364.03
2023-05-05T05:53:36.359Z,101337.34
2023-05-05T05:56:03.204Z,101353.53
2023-05-05T05:58:30.158Z,101353.63
2023-05-05T06:00:59.442Z,101338.53
2023-05-05T06:03:28.889Z,101375.28
2023-05-05T06:05:56.553Z,101311.00
2023-05-05T06:08:24.980Z,101386.13
2023-05-05T06:10:53.172Z,101368.34
2023-05-05T06:13:21.399Z,101368.31
2023-05-05T06:15:50.513Z,101373.47
2023-05-05T06:18:17.786Z,101369.06
2023-05-05T06:20:44.838Z,101387.56
2023-05-05T06:23:13.673Z,101371.25
2023-05-05T06:25:44.953Z,101320.09
2023-05-05T06:28:11.617Z,101388.97
2023-05-05T06:30:38.203Z,101382.00
2023-05-05T06:33:04.929Z,101341.44
2023-05-05T06:35:31.977Z,101397.56
2023-05-05T06:37:58.506Z,101376.47
2023-05-05T06:40:25.191Z,101389.09
2023-05-05T06:42:51.844Z,101386.84
2023-05-05T06:45:23.506Z,101408.66
2023-05-05T06:47:50.154Z,101395.75
2023-05-05T06:50:16.832Z,101348.22
2023-05-05T06:52:43.385Z,101388.00
2023-05-05T06:55:10.132Z,101401.16
2023-05-05T06:57:36.781Z,101387.69
2023-05-05T07:00:05.987Z,101419.84
2023-05-05T07:02:33.601Z,101407.84
2023-05-05T07:05:00.327Z,101353.25
2023-05-05T07:07:27.028Z,101395.03
2023-05-05T07:09:53.648Z,101424.94
2023-05-05T07:12:20.279Z,101432.19
2023-05-05T07:14:47.054Z,101410.03
2023-05-05T07:17:13.724Z,101426.53
2023-05-05T07:19:40.307Z,101389.78
2023-05-05T07:22:06.911Z,101427.28
2023-05-05T07:24:33.614Z,101438.03
2023-05-05T07:27:00.289Z,101425.00
2023-05-05T07:29:27.079Z,101403.97
2023-05-05T07:31:53.792Z,101420.28
2023-05-05T07:34:20.426Z,101369.19
2023-05-05T07:36:46.985Z,101417.03
2023-05-05T07:39:15.203Z,101420.09
2023-05-05T07:41:42.488Z,101428.16
2023-05-05T07:44:09.167Z,101431.00
2023-05-05T07:46:35.799Z,101425.81
2023-05-05T07:49:02.392Z,101421.56
2023-05-05T07:51:29.705Z,101448.16
2023-05-05T07:53:56.662Z,101411.59
2023-05-05T07:56:23.352Z,101382.28
2023-05-05T07:58:50.048Z,101421.59
2023-05-05T08:01:16.684Z,101414.34
2023-05-05T08:03:43.495Z,101392.41
2023-05-05T08:06:10.449Z,101416.59
2023-05-05T08:08:37.891Z,101434.25
2023-05-05T08:11:06.408Z,101432.13
2023-05-05T08:13:33.230Z,101416.53
2023-05-05T08:16:00.025Z,101370.97
2023-05-05T08:18:27.012Z,101419.47
2023-05-05T08:20:54.597Z,101352.94
2023-05-05T08:23:21.565Z,101417.75
2023-05-05T08:25:48.165Z,101420.53
2023-05-05T08:28:14.771Z,101410.28
2023-05-05T08:30:41.699Z,101405.78
2023-05-05T08:33:08.322Z,101428.13
2023-05-05T08:35:34.892Z,101409.38
2023-05-05T08:38:01.388Z,101432.44
2023-05-05T08:40:36.442Z,101379.09
2023-05-05T08:43:03.954Z,101439.72
2023-05-05T08:45:30.693Z,101357.91
2023-05-05T08:47:58.370Z,101363.31
2023-05-05T08:50:27.132Z,101383.81
2023-05-05T08:52:58.103Z,101422.53
2023-05-05T08:55:26.614Z,101421.19
2023-05-05T08:57:56.498Z,101371.63
2023-05-05T09:00:23.556Z,101424.44
2023-05-05T09:02:50.840Z,101437.19
2023-05-05T09:05:18.174Z,101422.28
2023-05-05T09:07:46.691Z,101427.53
2023-05-05T09:10:14.774Z,101408.88
2023-05-05T09:12:41.595Z,101430.13
2023-05-05T09:15:15.117Z,101418.44
2023-05-05T09:17:42.334Z,101416.19
2023-05-05T09:20:11.649Z,101433.66
2023-05-05T09:22:43.585Z,101407.59
2023-05-05T09:25:18.162Z,101415.00
2023-05-05T09:27:47.058Z,101422.16
2023-05-05T09:30:23.270Z,101432.56
2023-05-05T09:32:51.802Z,101436.59
2023-05-05T09:35:19.958Z,101424.19
2023-05-05T09:37:46.939Z,101371.19
2023-05-05T09:40:17.028Z,101405.13
2023-05-05T09:42:44.678Z,101422.31
2023-05-05T09:45:17.444Z,101446.44
2023-05-05T09:47:45.921Z,101415.50
2023-05-05T09:50:15.904Z,101420.72
2023-05-05T09:52:43.237Z,101374.25
2023-05-05T09:55:19.098Z,101443.91
2023-05-05T09:57:47.262Z,101440.88
2023-05-05T10:00:14.663Z,101426.81
2023-05-05T10:02:41.951Z,101416.47
2023-05-05T10:05:08.970Z,101428.38
2023-05-05T10:07:36.836Z,101411.56
2023-05-05T10:10:09.574Z,101402.19
2023-05-05T10:12:37.440Z,101343.84
2023-05-05T10:15:06.031Z,101412.75
2023-05-05T10:17:53.981Z,101403.28
2023-05-05T10:20:32.983Z,101397.59
2023-05-05T10:23:02.487Z,101392.25
2023-05-05T10:25:33.384Z,101413.34
2023-05-05T10:28:04.333Z,101413.03
2023-05-05T10:30:39.493Z,101391.88
2023-05-05T10:33:30.147Z,101404.84
2023-05-05T10:36:01.316Z,101403.53
2023-05-05T10:38:30.869Z,101314.84
2023-05-05T10:41:02.229Z,101383.03
2023-05-05T10:43:30.165Z,101327.63
2023-05-05T10:45:57.636Z,101388.56
2023-05-05T10:49:13.521Z,101393.47
2023-05-05T10:52:01.429Z,101390.31
2023-05-05T10:54:45.555Z,101393.31
2023-05-05T10:57:12.308Z,101366.81
2023-05-05T10:59:39.979Z,101388.31
2023-05-05T11:02:29.314Z,101361.47
2023-05-05T11:05:10.512Z,101387.16
2023-05-05T11:07:37.816Z,101346.47
2023-05-05T11:10:07.088Z,101373.13
2023-05-05T11:13:01.870Z,101375.94
2023-05-05T11:15:31.520Z,101376.34
2023-05-05T11:18:05.682Z,101344.47
2023-05-05T11:20:40.082Z,101384.28
2023-05-05T11:23:06.820Z,101385.97
2023-05-05T11:25:37.234Z,101316.88
2023-05-05T11:28:12.372Z,101377.16
2023-05-05T11:30:58.542Z,101395.69
2023-05-05T11:33:28.880Z,101401.88
2023-05-05T11:36:05.064Z,101450.78
2023-05-05T11:38:39.065Z,101456.22
2023-05-05T11:41:33.229Z,101458.59
2023-05-05T11:44:13.062Z,101470.00
2023-05-05T11:46:43.193Z,101448.28
2023-05-05T11:49:09.831Z,101453.59
2023-05-05T11:51:36.524Z,101464.16
2023-05-05T11:54:03.231Z,101472.84
2023-05-05T11:56:29.829Z,101427.88
2023-05-05T11:59:08.763Z,101434.81
2023-05-05T12:01:44.807Z,101462.16
2023-05-05T12:04:13.462Z,101442.28
2023-05-05T12:06:40.865Z,101492.47
2023-05-05T12:09:15.392Z,101502.38
2023-05-05T12:11:52.912Z,101451.56
2023-05-05T12:14:20.657Z,101475.00
2023-05-05T12:16:57.027Z,101506.53
2023-05-05T12:19:24.379Z,101508.44
2023-05-05T12:21:54.112Z,101499.66
2023-05-05T12:24:20.763Z,101450.59
2023-05-05T12:26:47.279Z,101397.97
2023-05-05T12:29:24.400Z,101465.97
2023-05-05T12:31:51.414Z,101418.63
2023-05-05T12:34:18.727Z,101413.25
2023-05-05T12:36:45.923Z,101480.34
2023-05-05T12:39:12.646Z,101403.34
2023-05-05T12:41:39.409Z,101488.38
2023-05-05T12:44:06.015Z,101449.94
2023-05-05T12:46:47.632Z,101483.84
2023-05-05T12:49:14.858Z,101477.72
2023-05-05T12:51:54.092Z,101401.75
2023-05-05T12:54:20.659Z,101468.03
2023-05-05T12:56:47.917Z,101425.22
2023-05-05T12:59:23.997Z,101455.72
2023-05-05T13:01:52.630Z,101335.13
2023-05-05T13:04:21.729Z,101443.28
2023-05-05T13:06:50.051Z,101470.13
2023-05-05T13:09:26.990Z,101446.88
2023-05-05T13:11:54.662Z,101430.81
2023-05-05T13:14:21.695Z,101456.72
2023-05-05T13:16:48.343Z,101463.00
2023-05-05T13:19:14.906Z,101446.91
2023-05-05T13:21:41.914Z,101460.25
2023-05-05T13:24:23.599Z,101479.00
2023-05-05T13:26:55.807Z,101482.53
2023-05-05T13:29:25.155Z,101478.94
2023-05-05T13:31:53.907Z,101436.88
2023-05-05T13:34:20.478Z,101461.88
2023-05-05T13:36:47.153Z,101485.06
2023-05-05T13:39:13.980Z,101484.09
2023-05-05T13:41:40.571Z,101485.91
2023-05-05T13:44:07.214Z,101473.41
2023-05-05T13:46:33.818Z,101459.09
2023-05-05T13:49:00.356Z,101452.00
2023-05-05T13:51:26.973Z,101460.13
2023-05-05T13:53:53.916Z,101476.25
2023-05-05T13:56:20.480Z,101465.53
2023-05-05T13:58:47.167Z,101478.94
2023-05-05T14:01:13.822Z,101474.47
2023-05-05T14:03:40.629Z,101482.50
2023-05-05T14:06:08.997Z,101450.28
2023-05-05T14:08:35.712Z,101474.41
2023-05-05T14:11:03.165Z,101500.22
2023-05-05T14:13:29.806Z,101453.59
2023-05-05T14:15:58.299Z,101499.19
2023-05-05T14:18:25.867Z,101500.06
2023-05-05T14:20:52.512Z,101480.25
2023-05-05T14:23:19.093Z,101466.00
2023-05-05T14:25:45.690Z,101475.94
2023-05-05T14:28:12.277Z,101486.69
2023-05-05T14:30:39.572Z,101472.44
2023-05-05T14:33:06.182Z,101454.63
2023-05-05T14:35:32.796Z,101484.25
2023-05-05T14:37:59.365Z,101448.56
2023-05-05T14:40:25.912Z,101474.56
2023-05-05T14:42:52.602Z,101477.31
2023-05-05T14:45:19.212Z,101454.09
2023-05-05T14:47:45.856Z,101298.69
2023-05-05T14:50:14.133Z,101385.31
2023-05-05T14:52:40.973Z,101404.09
2023-05-05T14:55:08.246Z,101462.16
2023-05-05T14:57:34.953Z,101461.28
2023-05-05T15:00:01.523Z,101451.44
2023-05-05T15:02:28.311Z,101448.75
2023-05-05T15:04:54.868Z,101434.44
2023-05-05T15:07:22.601Z,101373.69
2023-05-05T15:09:49.290Z,101417.44
2023-05-05T15:12:15.975Z,101449.59
2023-05-05T15:14:42.569Z,101450.47
2023-05-05T15:17:09.178Z,101456.75
2023-05-05T15:19:35.821Z,101454.97
2023-05-05T15:22:02.476Z,101429.97
2023-05-05T15:24:29.006Z,101433.56
2023-05-05T15:26:55.534Z,101444.31
2023-05-05T15:29:22.061Z,101355.84
2023-05-05T15:31:48.650Z,101435.34
2023-05-05T15:34:15.194Z,101308.50
2023-05-05T15:36:41.687Z,101430.72
2023-05-05T15:39:08.418Z,101425.16
2023-05-05T15:41:34.916Z,101414.94
2023-05-05T15:44:03.060Z,101393.16
2023-05-05T15:46:32.850Z,101383.72
2023-05-05T15:48:59.672Z,101396.59
2023-05-05T15:51:26.263Z,101413.47
2023-05-05T15:53:53.343Z,101371.50
2023-05-05T15:56:19.949Z,101401.75
2023-05-05T15:58:46.543Z,101414.56
2023-05-05T16:01:13.156Z,101401.13
2023-05-05T16:03:39.821Z,101410.41
2023-05-05T16:06:06.776Z,101336.53
2023-05-05T16:08:33.342Z,101397.50
2023-05-05T16:10:59.927Z,101405.09
2023-05-05T16:13:26.661Z,101410.47
2023-05-05T16:15:53.280Z,101421.75
2023-05-05T16:18:19.875Z,101414.06
2023-05-05T16:20:46.439Z,101406.97
2023-05-05T16:23:12.974Z,101376.50
2023-05-05T16:25:39.559Z,101407.06
2023-05-05T16:28:06.117Z,101342.66
2023-05-05T16:30:32.691Z,101400.94
2023-05-05T16:32:59.424Z,101411.88
2023-05-05T16:35:26.063Z,101403.94
2023-05-05T16:37:52.676Z,101396.88
2023-05-05T16:40:19.215Z,101322.81
2023-05-05T16:42:45.891Z,101389.31
2023-05-05T16:45:12.420Z,101386.13
2023-05-05T16:47:39.287Z,101338.63
2023-05-05T16:50:07.031Z,101402.00
2023-05-05T16:52:33.572Z,101392.19
2023-05-05T16:55:00.168Z,101400.09
2023-05-05T16:57:26.908Z,101406.78
2023-05-05T16:59:56.122Z,101412.97
2023-05-05T17:02:22.802Z,101389.97
2023-05-05T17:04:49.426Z,101394.47
2023-05-05T17:07:16.049Z,101408.25
2023-05-05T17:09:42.595Z,101414.13
2023-05-05T17:12:09.198Z,101388.66
2023-05-05T17:14:35.866Z,101402.91
2023-05-05T17:17:02.433Z,101401.59
2023-05-05T17:19:29.001Z,101412.75
2023-05-05T17:21:55.696Z,101401.34
2023-05-05T17:24:22.668Z,101354.44
2023-05-05T17:26:50.051Z,101405.09
2023-05-05T17:29:20.117Z,101396.38
2023-05-05T17:31:46.861Z,101410.88
2023-05-05T17:34:13.498Z,101416.56
2023-05-05T17:36:40.447Z,101421.31
2023-05-05T17:39:07.382Z,101412.59
2023-05-05T17:41:33.952Z,101402.00
2023-05-05T17:44:00.588Z,101415.47
2023-05-05T17:46:27.375Z,101351.28
2023-05-05T17:48:54.431Z,101351.28
2023-05-05T17:51:21.059Z,101403.03
2023-05-05T17:53:47.579Z,101413.72
2023-05-05T17:56:14.148Z,101415.53
2023-05-05T17:58:41.286Z,101396.84
2023-05-05T18:01:08.003Z,101423.66
2023-05-05T18:03:34.739Z,101400.50
2023-05-05T18:06:02.294Z,101400.50
2023-05-05T18:08:28.887Z,101412.09
2023-05-05T18:10:55.390Z,101423.72
2023-05-05T18:13:21.973Z,101428.19
2023-05-05T18:15:48.502Z,101395.13
2023-05-05T18:18:15.088Z,101229.94
2023-05-05T18:20:41.575Z,101354.06
2023-05-05T18:23:08.144Z,101389.78
2023-05-05T18:25:34.682Z,101397.78
2023-05-05T18:28:01.330Z,101410.31
2023-05-05T18:30:28.007Z,101425.53
2023-05-05T18:32:54.706Z,101338.88
2023-05-05T18:35:21.408Z,101428.19
2023-05-05T18:37:48.010Z,101431.75
2023-05-05T18:40:14.695Z,101418.28
2023-05-05T18:42:43.091Z,101414.66
2023-05-05T18:45:11.160Z,101440.53
2023-05-05T18:47:39.173Z,101424.38
2023-05-05T18:50:06.520Z,101442.19
2023-05-05T18:52:33.739Z,101382.16
2023-05-05T18:55:00.304Z,101432.16
2023-05-05T18:57:27.300Z,101439.22
2023-05-05T18:59:53.789Z,101435.56
2023-05-05T19:02:20.373Z,101464.06
2023-05-05T19:04:47.056Z,101440.72
2023-05-05T19:07:23.878Z,101458.50
2023-05-05T19:09:58.101Z,101429.75
2023-05-05T19:12:24.724Z,101447.44
2023-05-05T19:14:51.276Z,101452.72
2023-05-05T19:17:21.353Z,101458.88
2023-05-05T19:19:47.921Z,101386.22
2023-05-05T19:22:17.248Z,101376.28
2023-05-05T19:24:43.872Z,101380.59
2023-05-05T19:27:14.744Z,101353.59
2023-05-05T19:29:42.972Z,101464.53
2023-05-05T19:32:09.643Z,101467.97
2023-05-05T19:34:36.260Z,101472.25
2023-05-05T19:37:02.778Z,101453.25
2023-05-05T19:39:29.267Z,101471.00
2023-05-05T19:41:55.776Z,101477.06
2023-05-05T19:44:22.724Z,101482.25
2023-05-05T19:46:49.332Z,101470.34
2023-05-05T19:49:16.350Z,101493.50
2023-05-05T19:51:43.733Z,101473.75
2023-05-05T19:54:10.357Z,101477.16
2023-05-05T19:56:36.994Z,101476.06
2023-05-05T19:59:06.059Z,101487.59
2023-05-05T20:01:33.843Z,101494.63
2023-05-05T20:04:00.711Z,101496.22
2023-05-05T20:06:27.462Z,101483.56
2023-05-05T20:08:55.267Z,101476.25
2023-05-05T20:11:22.617Z,101379.25
2023-05-05T20:13:50.259Z,101396.22
2023-05-05T20:16:17.576Z,101480.34
2023-05-05T20:18:44.273Z,101493.63
2023-05-05T20:21:11.123Z,101427.09
2023-05-05T20:23:37.767Z,101493.28
2023-05-05T20:26:04.483Z,101490.53
2023-05-05T20:28:31.752Z,101398.13
2023-05-05T20:30:58.416Z,101481.28
2023-05-05T20:33:25.011Z,101465.88
2023-05-05T20:35:51.704Z,101455.00
2023-05-05T20:38:18.275Z,101436.16
2023-05-05T20:40:44.801Z,101479.06
2023-05-05T20:43:11.901Z,101486.16
2023-05-05T20:45:38.481Z,101484.31
2023-05-05T20:48:07.316Z,101489.47
2023-05-05T20:50:39.443Z,101441.81
2023-05-05T20:53:10.718Z,101492.94
2023-05-05T20:55:37.278Z,101482.22
2023-05-05T20:58:05.219Z,101476.63
2023-05-05T21:00:31.795Z,101463.94
2023-05-05T21:02:58.655Z,101403.91
2023-05-05T21:05:25.859Z,101384.16
2023-05-05T21:07:54.209Z,101389.56
2023-05-05T21:10:20.831Z,101463.19
2023-05-05T21:12:47.399Z,101459.47
2023-05-05T21:15:14.204Z,101473.69
2023-05-05T21:17:40.867Z,101477.19
2023-05-05T21:20:08.607Z,101468.16
2023-05-05T21:22:36.240Z,101398.22
2023-05-05T21:25:17.145Z,101393.72
2023-05-05T21:27:43.947Z,101480.63
2023-05-05T21:30:11.565Z,101480.63
2023-05-05T21:32:39.812Z,101383.78
2023-05-05T21:35:08.561Z,101462.56
2023-05-05T21:37:37.428Z,101451.91
2023-05-05T21:40:12.125Z,101478.81
2023-05-05T21:42:41.153Z,101477.94
2023-05-05T21:45:08.399Z,101480.56
2023-05-05T21:47:35.013Z,101386.53
2023-05-05T21:50:01.891Z,101400.00
2023-05-05T21:52:28.499Z,101477.13
2023-05-05T21:55:00.621Z,101477.13
2023-05-05T21:57:27.611Z,101459.16
2023-05-05T21:59:54.196Z,101462.69
2023-05-05T22:02:20.795Z,101473.47
2023-05-05T22:04:48.882Z,101368.56
2023-05-05T22:07:15.503Z,101472.72
2023-05-05T22:09:42.848Z,101347.91
2023-05-05T22:12:09.385Z,101466.44
2023-05-05T22:14:35.965Z,101370.53
2023-05-05T22:17:02.542Z,101472.81
2023-05-05T22:19:29.098Z,101468.34
2023-05-05T22:21:57.309Z,101455.72
2023-05-05T22:24:23.880Z,101464.88
2023-05-05T22:26:50.467Z,101436.28
2023-05-05T22:29:17.063Z,101342.25
2023-05-05T22:31:43.742Z,101446.41
2023-05-05T22:34:10.328Z,101442.81
2023-05-05T22:36:36.895Z,101384.53
2023-05-05T22:39:03.483Z,101469.91
2023-05-05T22:41:30.019Z,101462.78
2023-05-05T22:43:56.600Z,101458.47
2023-05-05T22:46:23.169Z,101447.88
2023-05-05T22:48:49.714Z,101463.22
2023-05-05T22:51:16.619Z,101373.94
2023-05-05T22:53:43.191Z,101438.78
2023-05-05T22:56:09.726Z,101466.78
2023-05-05T22:58:36.252Z,101456.28
2023-05-05T23:01:02.893Z,101465.25
2023-05-05T23:03:29.521Z,101333.59
2023-05-05T23:05:56.043Z,101453.00
2023-05-05T23:08:23.955Z,101451.25
2023-05-05T23:10:50.751Z,101454.97
2023-05-05T23:13:17.413Z,101457.63
2023-05-05T23:15:44.205Z,101455.88
2023-05-05T23:18:10.916Z,101450.47
2023-05-05T23:20:37.502Z,101361.69
2023-05-05T23:23:04.726Z,101349.13
2023-05-05T23:25:31.316Z,101372.38
2023-05-05T23:27:57.934Z,101444.16
2023-05-05T23:30:24.530Z,101451.44
2023-05-05T23:32:51.058Z,101461.28
2023-05-05T23:35:17.799Z,101448.72
2023-05-05T23:37:44.349Z,101458.66
2023-05-05T23:40:11.071Z,101384.16
2023-05-05T23:42:37.669Z,101452.28
2023-05-05T23:45:04.481Z,101431.72
2023-05-05T23:47:31.138Z,101449.56
2023-05-05T23:49:58.017Z,101383.09
2023-05-05T23:52:24.550Z,101459.28
2023-05-05T23:54:51.214Z,101370.53
2023-05-05T23:57:17.722Z,101458.44
2023-05-05T23:59:44.699Z,101366.97
